createdAt,value
2023-05-10T00:01:51.845Z,21.00
2023-05-10T00:04:19.202Z,23.17
2023-05-10T00:06:46.393Z,21.77
2023-05-10T00:09:13.601Z,21.57
2023-05-10T00:11:40.795Z,24.57
2023-05-10T00:14:08.015Z,22.03
2023-05-10T00:16:35.272Z,17.53
2023-05-10T00:19:02.455Z,16.83
2023-05-10T00:21:29.646Z,14.33
2023-05-10T00:23:56.934Z,18.10
2023-05-10T00:26:24.114Z,15.67
2023-05-10T00:28:51.326Z,18.33
2023-05-10T00:31:18.478Z,19.17
2023-05-10T00:33:45.656Z,19.27
2023-05-10T00:36:12.960Z,22.43
2023-05-10T00:38:40.090Z,17.60
2023-05-10T00:41:07.667Z,19.77
2023-05-10T00:43:34.829Z,18.93
2023-05-10T00:46:02.202Z,19.50
2023-05-10T00:48:30.580Z,17.77
2023-05-10T00:50:57.796Z,18.90
2023-05-10T00:53:25.449Z,22.73
2023-05-10T00:55:52.691Z,22.50
2023-05-10T00:58:19.908Z,18.73
2023-05-10T01:00:49.476Z,21.80
2023-05-10T01:03:16.774Z,20.40
2023-05-10T01:05:43.980Z,24.47
2023-05-10T01:08:11.231Z,19.57
2023-05-10T01:10:38.383Z,21.47
2023-05-10T01:13:05.720Z,20.27
2023-05-10T01:15:33.188Z,28.33
2023-05-10T01:18:00.536Z,21.30
2023-05-10T01:20:29.962Z,23.67
2023-05-10T01:23:22.908Z,22.87
2023-05-10T01:25:56.162Z,19.40
2023-05-10T01:28:35.435Z,19.70
2023-05-10T01:31:09.258Z,20.43
2023-05-10T01:33:42.893Z,19.63
2023-05-10T01:36:26.895Z,20.20
2023-05-10T01:38:54.057Z,18.23
2023-05-10T01:41:35.659Z,18.20
2023-05-10T01:44:05.641Z,20.23
2023-05-10T01:46:40.567Z,21.10
2023-05-10T01:49:13.643Z,22.50
2023-05-10T01:51:43.595Z,22.40
2023-05-10T01:54:11.920Z,20.00
2023-05-10T01:56:39.668Z,19.37
2023-05-10T01:59:09.349Z,22.60
2023-05-10T02:01:39.335Z,20.90
2023-05-10T02:04:08.126Z,22.37
2023-05-10T02:06:36.486Z,26.33
2023-05-10T02:09:04.242Z,31.30
2023-05-10T02:11:32.194Z,28.70
2023-05-10T02:14:00.061Z,29.10
2023-05-10T02:16:28.218Z,29.17
2023-05-10T02:18:56.001Z,29.30
2023-05-10T02:21:23.562Z,22.87
2023-05-10T02:23:51.945Z,32.60
2023-05-10T02:26:19.799Z,28.23
2023-05-10T02:28:47.177Z,26.30
2023-05-10T02:31:15.230Z,27.90
2023-05-10T02:33:42.662Z,28.70
2023-05-10T02:36:11.274Z,30.93
2023-05-10T02:38:38.559Z,30.27
2023-05-10T02:41:06.354Z,30.40
2023-05-10T02:43:35.080Z,25.13
2023-05-10T02:46:02.448Z,28.27
2023-05-10T02:48:29.869Z,33.00
2023-05-10T02:50:57.964Z,36.97
2023-05-10T02:53:31.631Z,35.57
2023-05-10T02:56:00.660Z,29.17
2023-05-10T02:58:27.939Z,29.83
2023-05-10T03:00:55.354Z,26.60
2023-05-10T03:03:23.070Z,24.63
2023-05-10T03:05:50.243Z,25.87
2023-05-10T03:08:17.697Z,20.13
2023-05-10T03:11:05.076Z,31.67
2023-05-10T03:13:45.919Z,30.00
2023-05-10T03:16:24.130Z,26.07
2023-05-10T03:19:20.521Z,30.43
2023-05-10T03:21:52.290Z,26.47
2023-05-10T03:24:21.866Z,37.17
2023-05-10T03:26:49.149Z,33.93
2023-05-10T03:29:16.800Z,43.03
2023-05-10T03:31:44.257Z,59.60
2023-05-10T03:34:11.462Z,24.80
2023-05-10T03:36:38.602Z,29.27
2023-05-10T03:39:05.764Z,34.17
2023-05-10T03:41:32.947Z,33.10
2023-05-10T03:44:00.097Z,41.60
2023-05-10T03:46:27.435Z,32.53
2023-05-10T03:48:54.604Z,43.70
2023-05-10T03:51:21.828Z,42.07
2023-05-10T03:53:49.020Z,38.23
2023-05-10T03:56:16.199Z,51.60
2023-05-10T03:58:43.357Z,47.17
2023-05-10T04:01:10.718Z,32.33
2023-05-10T04:03:38.024Z,46.33
2023-05-10T04:06:06.249Z,34.50
2023-05-10T04:08:33.494Z,30.77
2023-05-10T04:11:10.193Z,40.50
2023-05-10T04:13:37.466Z,43.87
2023-05-10T04:16:04.801Z,41.37
2023-05-10T04:18:32.741Z,35.00
2023-05-10T04:20:59.917Z,38.33
2023-05-10T04:23:27.973Z,49.47
2023-05-10T04:26:00.592Z,39.80
2023-05-10T04:28:28.211Z,47.57
2023-05-10T04:30:55.507Z,53.67
2023-05-10T04:33:22.698Z,45.90
2023-05-10T04:35:49.873Z,45.57
2023-05-10T04:38:17.033Z,57.13
2023-05-10T04:40:44.203Z,52.03
2023-05-10T04:43:11.393Z,55.07
2023-05-10T04:45:38.529Z,52.43
2023-05-10T04:48:06.373Z,48.40
2023-05-10T04:50:33.588Z,58.70
2023-05-10T04:53:00.861Z,57.87
2023-05-10T04:55:28.109Z,53.60
2023-05-10T04:58:00.060Z,57.60
2023-05-10T05:00:27.264Z,52.77
2023-05-10T05:02:54.478Z,54.97
2023-05-10T05:05:21.709Z,53.27
2023-05-10T05:07:48.828Z,58.30
2023-05-10T05:10:16.186Z,55.17
2023-05-10T05:12:43.746Z,56.40
2023-05-10T05:15:12.608Z,50.93
2023-05-10T05:17:39.837Z,52.80
2023-05-10T05:20:07.394Z,42.37
2023-05-10T05:22:34.562Z,46.97
2023-05-10T05:25:03.742Z,46.07
2023-05-10T05:27:31.362Z,43.63
2023-05-10T05:29:58.866Z,45.40
2023-05-10T05:32:26.670Z,49.50
2023-05-10T05:34:53.856Z,44.23
2023-05-10T05:37:22.465Z,46.97
2023-05-10T05:39:49.847Z,46.47
2023-05-10T05:42:18.637Z,52.80
2023-05-10T05:44:46.282Z,45.13
2023-05-10T05:47:13.908Z,45.60
2023-05-10T05:49:41.222Z,47.57
2023-05-10T05:52:08.356Z,49.23
2023-05-10T05:54:35.622Z,55.50
2023-05-10T05:57:02.819Z,54.67
2023-05-10T05:59:30.118Z,55.17
2023-05-10T06:01:57.309Z,60.53
2023-05-10T06:04:24.638Z,60.57
2023-05-10T06:06:51.894Z,50.00
2023-05-10T06:09:19.033Z,57.47
2023-05-10T06:11:46.309Z,230.30
2023-05-10T06:14:13.529Z,60.77
2023-05-10T06:16:40.727Z,60.57
2023-05-10T06:19:08.039Z,55.90
2023-05-10T06:21:35.389Z,53.57
2023-05-10T06:24:03.668Z,57.93
2023-05-10T06:26:30.884Z,55.17
2023-05-10T06:28:58.044Z,63.93
2023-05-10T06:31:25.194Z,53.83
2023-05-10T06:33:53.670Z,60.97
2023-05-10T06:36:22.956Z,62.00
2023-05-10T06:38:50.115Z,59.05
2023-05-10T06:41:17.301Z,61.38
2023-05-10T06:43:44.583Z,57.35
2023-05-10T06:46:11.807Z,56.25
2023-05-10T06:48:38.962Z,65.95
2023-05-10T06:51:06.148Z,54.80
2023-05-10T06:53:33.718Z,50.40
2023-05-10T06:56:00.904Z,56.25
2023-05-10T06:58:28.120Z,62.30
2023-05-10T07:00:55.324Z,65.90
2023-05-10T07:03:22.574Z,65.43
2023-05-10T07:05:49.760Z,54.28
2023-05-10T07:08:16.936Z,60.25
2023-05-10T07:10:44.358Z,63.20
2023-05-10T07:13:11.640Z,62.50
2023-05-10T07:15:38.941Z,53.17
2023-05-10T07:18:07.471Z,58.33
2023-05-10T07:20:34.894Z,57.00
2023-05-10T07:23:02.108Z,50.20
2023-05-10T07:25:29.315Z,48.28
2023-05-10T07:27:56.458Z,57.75
2023-05-10T07:30:23.763Z,51.47
2023-05-10T07:32:51.005Z,48.28
2023-05-10T07:35:18.359Z,47.80
2023-05-10T07:37:45.724Z,48.10
2023-05-10T07:40:12.900Z,47.35
2023-05-10T07:42:40.066Z,40.67
2023-05-10T07:45:07.579Z,38.03
2023-05-10T07:47:34.783Z,40.38
2023-05-10T07:50:02.145Z,39.35
2023-05-10T07:52:29.301Z,37.40
2023-05-10T07:54:57.868Z,38.60
2023-05-10T07:57:25.020Z,36.42
2023-05-10T07:59:52.233Z,37.30
2023-05-10T08:02:19.483Z,41.28
2023-05-10T08:04:46.722Z,43.78
2023-05-10T08:07:14.016Z,47.65
2023-05-10T08:09:41.203Z,48.55
2023-05-10T08:12:08.390Z,45.92
2023-05-10T08:14:37.465Z,44.58
2023-05-10T08:17:05.049Z,45.70
2023-05-10T08:19:32.232Z,46.15
2023-05-10T08:21:59.419Z,47.80
2023-05-10T08:24:26.611Z,46.55
2023-05-10T08:26:53.783Z,37.58
2023-05-10T08:29:20.923Z,42.75
2023-05-10T08:31:48.198Z,41.20
2023-05-10T08:34:15.975Z,32.58
2023-05-10T08:36:43.188Z,33.55
2023-05-10T08:39:22.990Z,43.72
2023-05-10T08:42:00.083Z,34.67
2023-05-10T08:44:27.492Z,30.45
2023-05-10T08:46:55.479Z,33.25
2023-05-10T08:49:23.403Z,31.33
2023-05-10T08:51:52.126Z,38.85
2023-05-10T08:54:19.403Z,42.95
2023-05-10T08:56:49.250Z,34.97
2023-05-10T08:59:17.104Z,36.55
2023-05-10T09:01:45.380Z,34.45
2023-05-10T09:04:13.228Z,38.72
2023-05-10T09:06:40.566Z,34.92
2023-05-10T09:09:08.470Z,32.63
2023-05-10T09:11:36.054Z,35.30
2023-05-10T09:14:03.665Z,27.67
2023-05-10T09:16:30.871Z,27.40
2023-05-10T09:18:58.032Z,33.67
2023-05-10T09:21:25.444Z,24.50
2023-05-10T09:23:55.133Z,24.17
2023-05-10T09:26:25.175Z,27.30
2023-05-10T09:28:59.069Z,26.80
2023-05-10T09:31:26.820Z,23.95
2023-05-10T09:33:54.064Z,20.00
2023-05-10T09:36:21.265Z,24.58
2023-05-10T09:38:49.085Z,22.73
2023-05-10T09:41:19.980Z,19.77
2023-05-10T09:43:47.314Z,22.88
2023-05-10T09:46:14.809Z,24.52
2023-05-10T09:48:43.962Z,23.98
2023-05-10T09:51:11.468Z,26.42
2023-05-10T09:53:38.651Z,25.48
2023-05-10T09:56:05.925Z,32.45
2023-05-10T09:58:37.381Z,20.80
2023-05-10T10:01:04.701Z,26.65
2023-05-10T10:03:32.093Z,24.60
2023-05-10T10:05:59.233Z,23.23
2023-05-10T10:08:26.822Z,32.38
2023-05-10T10:10:54.115Z,21.40
2023-05-10T10:13:21.383Z,22.58
2023-05-10T10:15:52.236Z,25.83
2023-05-10T10:18:19.692Z,22.23
2023-05-10T10:20:47.410Z,18.63
2023-05-10T10:23:16.661Z,24.80
2023-05-10T10:25:45.439Z,23.50
2023-05-10T10:28:15.531Z,24.80
2023-05-10T10:30:43.327Z,22.73
2023-05-10T10:33:28.920Z,23.13
2023-05-10T10:35:57.199Z,25.08
2023-05-10T10:38:24.388Z,23.05
2023-05-10T10:41:03.283Z,28.65
2023-05-10T10:43:31.488Z,23.05
2023-05-10T10:46:18.284Z,26.85
2023-05-10T10:49:09.990Z,23.40
2023-05-10T10:51:40.639Z,22.88
2023-05-10T10:54:11.428Z,23.45
2023-05-10T10:56:38.759Z,25.05
2023-05-10T10:59:06.072Z,34.35
2023-05-10T11:01:36.558Z,28.17
2023-05-10T11:04:07.002Z,29.58
2023-05-10T11:06:35.149Z,29.02
2023-05-10T11:09:09.664Z,25.60
2023-05-10T11:11:37.256Z,23.13
2023-05-10T11:14:05.151Z,31.05
2023-05-10T11:16:42.813Z,22.83
2023-05-10T11:19:12.537Z,20.55
2023-05-10T11:21:48.786Z,24.48
2023-05-10T11:24:17.152Z,25.02
2023-05-10T11:26:44.410Z,20.05
2023-05-10T11:29:11.793Z,15.57
2023-05-10T11:31:44.803Z,19.58
2023-05-10T11:34:12.093Z,16.20
2023-05-10T11:36:39.318Z,18.63
2023-05-10T11:39:06.917Z,16.42
2023-05-10T11:41:34.185Z,21.55
2023-05-10T11:44:01.458Z,17.17
2023-05-10T11:46:29.536Z,19.17
2023-05-10T11:49:07.774Z,14.02
2023-05-10T11:51:38.007Z,19.17
2023-05-10T11:54:10.155Z,13.50
2023-05-10T11:56:38.205Z,10.45
2023-05-10T11:59:05.422Z,11.20
2023-05-10T12:01:33.062Z,10.70
2023-05-10T12:04:01.386Z,9.88
2023-05-10T12:06:30.014Z,11.15
2023-05-10T12:08:57.192Z,11.18
2023-05-10T12:11:28.348Z,9.80
2023-05-10T12:13:56.247Z,12.30
2023-05-10T12:16:24.960Z,10.38
2023-05-10T12:18:55.905Z,12.05
2023-05-10T12:21:23.445Z,11.57
2023-05-10T12:23:54.665Z,10.48
2023-05-10T12:26:27.342Z,9.73
2023-05-10T12:29:13.096Z,10.23
2023-05-10T12:31:58.923Z,10.63
2023-05-10T12:34:27.064Z,11.90
2023-05-10T12:36:54.751Z,17.35
2023-05-10T12:39:21.962Z,11.32
2023-05-10T12:41:49.171Z,11.05
2023-05-10T12:44:16.708Z,11.50
2023-05-10T12:46:43.884Z,10.02
2023-05-10T12:49:11.472Z,7.65
2023-05-10T12:51:38.600Z,7.80
2023-05-10T12:54:05.929Z,8.40
2023-05-10T12:56:33.115Z,9.48
2023-05-10T12:59:00.366Z,7.80
2023-05-10T13:01:27.759Z,12.32
2023-05-10T13:03:55.016Z,7.18
2023-05-10T13:06:22.181Z,7.47
2023-05-10T13:08:49.311Z,7.65
2023-05-10T13:11:17.943Z,7.63
2023-05-10T13:13:45.637Z,8.88
2023-05-10T13:16:12.933Z,9.30
2023-05-10T13:18:40.195Z,8.18
2023-05-10T13:21:08.475Z,8.48
2023-05-10T13:23:35.656Z,8.82
2023-05-10T13:26:02.875Z,8.20
2023-05-10T13:28:31.125Z,7.28
2023-05-10T13:30:58.357Z,6.35
2023-05-10T13:33:25.767Z,10.57
2023-05-10T13:35:54.416Z,7.45
2023-05-10T13:38:22.711Z,7.65
2023-05-10T13:40:53.422Z,11.63
2023-05-10T13:43:20.900Z,9.32
2023-05-10T13:45:48.363Z,10.43
2023-05-10T13:48:15.657Z,8.50
2023-05-10T13:50:42.902Z,7.22
2023-05-10T13:53:10.023Z,7.25
2023-05-10T13:55:37.213Z,11.30
2023-05-10T13:58:04.388Z,9.90
2023-05-10T14:00:31.646Z,10.07
2023-05-10T14:02:58.954Z,9.88
2023-05-10T14:05:26.768Z,9.85
2023-05-10T14:07:54.674Z,9.95
2023-05-10T14:10:21.890Z,8.85
2023-05-10T14:12:49.027Z,11.30
2023-05-10T14:15:16.433Z,11.20
2023-05-10T14:17:43.773Z,10.63
2023-05-10T14:20:11.216Z,10.77
2023-05-10T14:22:38.351Z,8.70
2023-05-10T14:25:05.790Z,9.18
2023-05-10T14:27:33.568Z,9.20
2023-05-10T14:30:00.786Z,7.88
2023-05-10T14:32:28.859Z,9.02
2023-05-10T14:34:56.637Z,8.18
2023-05-10T14:37:23.862Z,9.05
2023-05-10T14:39:51.061Z,10.85
2023-05-10T14:42:18.217Z,9.65
2023-05-10T14:44:45.366Z,9.68
2023-05-10T14:47:12.556Z,10.80
2023-05-10T14:49:39.724Z,10.23
2023-05-10T14:52:06.842Z,12.27
2023-05-10T14:54:37.024Z,12.98
2023-05-10T14:57:04.184Z,12.38
2023-05-10T14:59:31.571Z,13.63
2023-05-10T15:01:59.300Z,14.00
2023-05-10T15:04:28.378Z,11.90
2023-05-10T15:07:01.594Z,12.40
2023-05-10T15:09:28.855Z,13.57
2023-05-10T15:11:56.629Z,13.38
2023-05-10T15:14:24.152Z,13.88
2023-05-10T15:16:51.346Z,14.75
2023-05-10T15:19:18.538Z,16.45
2023-05-10T15:21:45.989Z,14.20
2023-05-10T15:24:13.254Z,14.75
2023-05-10T15:26:40.387Z,14.13
2023-05-10T15:29:07.547Z,16.60
2023-05-10T15:31:36.848Z,17.50
2023-05-10T15:34:04.227Z,7.82
2023-05-10T15:36:32.461Z,6.00
2023-05-10T15:38:59.579Z,4.97
2023-05-10T15:41:26.834Z,3.78
2023-05-10T15:43:54.006Z,2.90
2023-05-10T15:46:21.150Z,2.58
2023-05-10T15:48:48.367Z,5.45
2023-05-10T15:51:15.885Z,4.35
2023-05-10T15:53:56.519Z,3.00
2023-05-10T15:56:27.930Z,3.40
2023-05-10T15:58:55.067Z,5.15
2023-05-10T16:01:22.400Z,6.40
2023-05-10T16:03:49.670Z,3.85
2023-05-10T16:06:17.029Z,4.03
2023-05-10T16:08:44.256Z,5.40
2023-05-10T16:11:11.513Z,5.32
2023-05-10T16:13:38.676Z,7.15
2023-05-10T16:16:06.824Z,5.45
2023-05-10T16:18:34.185Z,6.10
2023-05-10T16:21:01.931Z,5.55
2023-05-10T16:23:29.368Z,5.50
2023-05-10T16:25:56.574Z,6.68
2023-05-10T16:28:23.750Z,7.10
2023-05-10T16:30:50.911Z,7.70
2023-05-10T16:33:18.145Z,6.50
2023-05-10T16:35:45.385Z,7.63
2023-05-10T16:38:12.824Z,7.93
2023-05-10T16:40:40.006Z,6.63
2023-05-10T16:43:07.740Z,6.20
2023-05-10T16:45:34.970Z,8.07
2023-05-10T16:48:02.364Z,6.15
2023-05-10T16:50:29.533Z,7.18
2023-05-10T16:52:56.782Z,6.93
2023-05-10T16:55:26.176Z,7.13
2023-05-10T16:57:59.584Z,7.25
2023-05-10T17:00:27.242Z,7.38
2023-05-10T17:02:54.919Z,9.05
2023-05-10T17:05:22.722Z,9.25
2023-05-10T17:07:50.549Z,9.10
2023-05-10T17:10:17.783Z,9.70
2023-05-10T17:12:45.028Z,9.38
2023-05-10T17:15:12.613Z,7.97
2023-05-10T17:17:39.897Z,9.82
2023-05-10T17:20:07.487Z,8.18
2023-05-10T17:22:34.673Z,6.85
2023-05-10T17:25:01.951Z,6.47
2023-05-10T17:27:30.180Z,7.68
2023-05-10T17:29:57.927Z,7.07
2023-05-10T17:32:25.455Z,7.80
2023-05-10T17:34:52.643Z,9.43
2023-05-10T17:37:19.903Z,7.40
2023-05-10T17:39:47.137Z,7.03
2023-05-10T17:42:17.435Z,7.85
2023-05-10T17:44:44.602Z,7.13
2023-05-10T17:47:11.911Z,8.25
2023-05-10T17:49:39.881Z,10.60
2023-05-10T17:52:07.406Z,10.70
2023-05-10T17:54:34.631Z,7.63
2023-05-10T17:57:04.067Z,6.57
2023-05-10T17:59:31.425Z,6.30
2023-05-10T18:01:58.615Z,6.00
2023-05-10T18:04:26.232Z,5.57
2023-05-10T18:07:00.953Z,5.43
2023-05-10T18:09:28.488Z,6.35
2023-05-10T18:11:55.680Z,5.85
2023-05-10T18:14:32.375Z,6.78
2023-05-10T18:17:03.739Z,7.13
2023-05-10T18:19:30.977Z,8.02
2023-05-10T18:21:58.231Z,6.00
2023-05-10T18:24:37.873Z,8.52
2023-05-10T18:27:06.797Z,7.30
2023-05-10T18:29:34.189Z,8.75
2023-05-10T18:32:01.432Z,8.80
2023-05-10T18:34:28.895Z,10.45
2023-05-10T18:36:56.351Z,8.38
2023-05-10T18:39:23.696Z,9.57
2023-05-10T18:41:50.980Z,9.60
2023-05-10T18:44:19.139Z,12.73
2023-05-10T18:46:46.738Z,12.60
2023-05-10T18:49:14.001Z,12.13
2023-05-10T18:51:41.219Z,13.10
2023-05-10T18:54:08.563Z,12.40
2023-05-10T18:56:35.737Z,12.80
2023-05-10T18:59:03.649Z,14.75
2023-05-10T19:01:30.840Z,14.82
2023-05-10T19:03:58.282Z,12.50
2023-05-10T19:06:25.470Z,13.73
2023-05-10T19:08:52.844Z,14.80
2023-05-10T19:11:21.974Z,14.50
2023-05-10T19:13:49.362Z,21.30
2023-05-10T19:16:19.041Z,18.70
2023-05-10T19:18:46.763Z,15.73
2023-05-10T19:21:15.299Z,18.38
2023-05-10T19:23:43.199Z,15.70
2023-05-10T19:26:11.270Z,13.82
2023-05-10T19:28:38.580Z,15.05
2023-05-10T19:31:06.271Z,19.90
2023-05-10T19:33:33.957Z,14.25
2023-05-10T19:36:01.165Z,13.50
2023-05-10T19:38:28.535Z,15.10
2023-05-10T19:41:00.174Z,14.23
2023-05-10T19:43:28.313Z,13.23
2023-05-10T19:45:56.186Z,16.42
2023-05-10T19:48:23.445Z,21.77
2023-05-10T19:50:50.736Z,20.40
2023-05-10T19:53:18.017Z,15.23
2023-05-10T19:55:45.215Z,15.73
2023-05-10T19:58:12.469Z,16.17
2023-05-10T20:00:39.681Z,17.30
2023-05-10T20:03:09.144Z,18.50
2023-05-10T20:05:36.617Z,17.45
2023-05-10T20:08:03.798Z,14.18
2023-05-10T20:10:31.009Z,15.45
2023-05-10T20:12:59.039Z,16.48
2023-05-10T20:15:27.291Z,19.55
2023-05-10T20:17:54.560Z,19.15
2023-05-10T20:20:22.072Z,15.15
2023-05-10T20:22:49.528Z,18.70
2023-05-10T20:25:16.931Z,20.10
2023-05-10T20:27:44.193Z,21.63
2023-05-10T20:30:11.554Z,18.23
2023-05-10T20:32:39.076Z,19.35
2023-05-10T20:35:07.180Z,15.25
2023-05-10T20:37:34.406Z,16.60
2023-05-10T20:40:01.701Z,18.23
2023-05-10T20:42:28.896Z,16.13
2023-05-10T20:44:56.037Z,16.30
2023-05-10T20:47:27.282Z,16.25
2023-05-10T20:49:54.702Z,17.60
2023-05-10T20:52:24.453Z,18.55
2023-05-10T20:54:51.773Z,16.95
2023-05-10T20:57:21.043Z,22.10
2023-05-10T20:59:48.238Z,17.95
2023-05-10T21:02:15.384Z,17.00
2023-05-10T21:04:42.557Z,17.52
2023-05-10T21:07:09.750Z,17.42
2023-05-10T21:09:36.909Z,16.88
2023-05-10T21:12:04.297Z,15.73
2023-05-10T21:14:31.527Z,18.17
2023-05-10T21:16:58.728Z,16.02
2023-05-10T21:19:25.889Z,16.48
2023-05-10T21:21:54.837Z,18.63
2023-05-10T21:24:22.183Z,17.45
2023-05-10T21:26:49.355Z,18.08
2023-05-10T21:29:16.671Z,22.80
2023-05-10T21:31:43.947Z,20.70
2023-05-10T21:34:11.200Z,24.05
2023-05-10T21:36:38.358Z,22.45
2023-05-10T21:39:05.528Z,20.50
2023-05-10T21:41:32.801Z,25.83
2023-05-10T21:43:59.918Z,23.17
2023-05-10T21:46:27.272Z,22.37
2023-05-10T21:48:54.464Z,23.92
2023-05-10T21:51:24.428Z,36.72
2023-05-10T21:53:51.620Z,45.40
2023-05-10T21:56:18.833Z,36.28
2023-05-10T21:58:46.066Z,30.25
2023-05-10T22:01:14.978Z,27.85
2023-05-10T22:03:42.345Z,26.98
2023-05-10T22:06:09.632Z,26.85
2023-05-10T22:08:36.808Z,25.30
2023-05-10T22:11:04.054Z,23.90
2023-05-10T22:13:31.204Z,25.25
2023-05-10T22:15:58.384Z,25.63
2023-05-10T22:18:25.684Z,27.90
2023-05-10T22:20:52.928Z,31.85
2023-05-10T22:23:20.263Z,26.70
2023-05-10T22:25:47.512Z,33.70
2023-05-10T22:28:14.706Z,30.43
2023-05-10T22:30:42.481Z,28.92
2023-05-10T22:33:09.636Z,37.70
2023-05-10T22:35:36.811Z,29.92
2023-05-10T22:38:03.978Z,30.67
2023-05-10T22:40:31.175Z,28.02
2023-05-10T22:42:58.439Z,27.65
2023-05-10T22:45:25.817Z,29.77
2023-05-10T22:47:53.133Z,27.88
2023-05-10T22:50:21.242Z,24.70
2023-05-10T22:52:48.585Z,26.80
2023-05-10T22:55:15.793Z,24.53
2023-05-10T22:57:42.969Z,27.67
2023-05-10T23:00:10.770Z,22.10
2023-05-10T23:02:37.941Z,25.20
2023-05-10T23:05:05.763Z,25.70
2023-05-10T23:07:33.034Z,29.98
2023-05-10T23:10:00.212Z,23.57
2023-05-10T23:12:27.401Z,30.63
2023-05-10T23:14:54.776Z,24.50
2023-05-10T23:17:22.140Z,26.03
2023-05-10T23:19:49.254Z,30.20
2023-05-10T23:22:16.406Z,30.70
2023-05-10T23:24:43.665Z,30.98
2023-05-10T23:27:11.366Z,31.50
2023-05-10T23:29:38.587Z,28.13
2023-05-10T23:32:06.004Z,27.38
2023-05-10T23:34:33.233Z,29.97
2023-05-10T23:37:00.606Z,32.13
2023-05-10T23:39:27.934Z,27.80
2023-05-10T23:41:55.485Z,27.52
2023-05-10T23:44:22.667Z,29.20
2023-05-10T23:46:49.817Z,28.88
2023-05-10T23:49:17.414Z,34.05
2023-05-10T23:51:44.530Z,26.67
2023-05-10T23:54:12.291Z,34.42
2023-05-10T23:56:39.464Z,29.27
2023-05-10T23:59:06.727Z,29.13
